New Liberty, Iowa
Current Conditions -  °F | °C
As of 6:05 AM on Wednesday 28 Jan 2015 (Local Time) from KDVN Reporting Station
Overcast Overcast  
Wind Chill: 17°   Ceiling: 1100
Heat Index: 28°   Visibility: 9mi
Dew Point: 23°   Wind: 14mph
Humidity: 81%   Direction: 150°SSE
Pressure: 30.2"   Gusts: NA
Location:  41.72°N, 90.88°W
Report Text: KDVN 281205Z AUTO 15012KT 9SM OVC011 M02/M05 A3020 RMK AO2 T10221050
Loading
Personal Weather Stations






























Interactive Weather Map New forecast layout! Learn more

10-Day Weather Forecast

Advertisements
Track Severe Weather on mobile